Time;durP1;ratioP1;P1;durP2;ratioP2;P2;SDS_P1;SDS_P2;PMS_P1;PMS_P2;Temp;Humidity;BMP_temperature;BMP_pressure;BME280_temperature;BME280_humidity;BME280_pressure;Samples;Min_cycle;Max_cycle;Signal;HPM_P1;HPM_P2
2022/10/28 00:01:38;;;;;;;6.30;5.53;;;12.40;99.90;;;;;;5043342;28;21167;-88
2022/10/28 00:04:05;;;;;;;11.90;5.57;;;12.80;99.90;;;;;;5044636;28;20629;-88
2022/10/28 00:06:35;;;;;;;7.50;5.13;;;12.40;99.90;;;;;;5047213;28;20632;-88
2022/10/28 00:09:02;;;;;;;11.70;6.03;;;12.40;99.90;;;;;;5059080;28;20640;-88
2022/10/28 00:11:31;;;;;;;6.47;5.23;;;12.50;99.90;;;;;;5066662;28;20632;-88
2022/10/28 00:14:00;;;;;;;10.80;5.77;;;12.40;99.90;;;;;;5045855;28;20618;-88
2022/10/28 00:16:29;;;;;;;9.97;5.40;;;12.70;99.90;;;;;;5043723;28;20637;-87
2022/10/28 00:18:56;;;;;;;8.20;5.00;;;12.70;99.90;;;;;;5044089;28;20677;-88
2022/10/28 00:21:26;;;;;;;12.87;6.10;;;12.30;99.90;;;;;;5038498;28;20630;-88
2022/10/28 00:23:54;;;;;;;13.07;6.20;;;12.60;99.90;;;;;;5042347;28;20978;-88
2022/10/28 00:26:24;;;;;;;13.40;6.97;;;12.70;99.90;;;;;;5038970;28;20628;-88
2022/10/28 00:28:52;;;;;;;8.20;5.77;;;12.70;99.90;;;;;;5041916;28;20657;-87
2022/10/28 00:31:21;;;;;;;13.10;5.90;;;12.70;99.90;;;;;;5040244;28;20646;-88
2022/10/28 00:33:48;;;;;;;11.90;7.10;;;12.70;99.90;;;;;;5039342;28;20630;-88
2022/10/28 00:36:17;;;;;;;10.07;6.13;;;12.30;99.90;;;;;;5045933;28;21018;-88
2022/10/28 00:38:47;;;;;;;14.57;6.13;;;12.80;99.90;;;;;;5049129;28;20664;-88
2022/10/28 00:41:17;;;;;;;8.10;6.57;;;12.60;99.90;;;;;;5051857;28;20638;-88
2022/10/28 00:43:45;;;;;;;9.10;5.97;;;12.50;99.90;;;;;;5047170;28;21015;-89
2022/10/28 00:46:27;;;;;;;11.80;6.00;;;12.20;99.90;;;;;;5048321;28;20622;-89
2022/10/28 00:48:58;;;;;;;11.70;7.40;;;12.50;99.90;;;;;;5055905;28;20959;-88
2022/10/28 00:51:26;;;;;;;11.70;5.63;;;12.30;99.90;;;;;;5055516;28;20746;-87
2022/10/28 00:53:54;;;;;;;7.80;6.47;;;12.20;99.90;;;;;;5043239;28;20635;-88
2022/10/28 00:56:24;;;;;;;15.17;6.50;;;12.50;99.90;;;;;;5039550;28;20693;-88
2022/10/28 00:58:55;;;;;;;9.63;6.20;;;12.10;99.90;;;;;;5038688;28;20669;-88
2022/10/28 01:01:21;;;;;;;9.50;6.60;;;12.50;99.90;;;;;;5040335;28;20678;-88
2022/10/28 01:03:48;;;;;;;6.93;6.23;;;12.40;99.90;;;;;;5043034;28;20638;-88
2022/10/28 01:06:16;;;;;;;9.67;6.63;;;12.50;99.90;;;;;;5046049;28;20632;-88
2022/10/28 01:08:43;;;;;;;9.37;6.93;;;12.10;99.90;;;;;;5046367;28;20650;-88
2022/10/28 01:11:40;;;;;;;10.13;7.20;;;12.50;99.90;;;;;;5044172;28;20630;-88
2022/10/28 01:14:20;;;;;;;8.40;6.07;;;12.50;99.90;;;;;;5042944;28;20638;-87
2022/10/28 01:17:00;;;;;;;12.03;8.03;;;12.70;99.90;;;;;;5040350;28;20623;-87
2022/10/28 01:20:04;;;;;;;6.77;6.10;;;12.10;99.90;;;;;;5039870;28;20677;-88
2022/10/28 01:22:36;;;;;;;9.40;6.67;;;12.30;99.90;;;;;;5026213;28;20640;-88
2022/10/28 01:25:30;;;;;;;9.70;7.17;;;12.30;99.90;;;;;;5043777;28;20630;-88
2022/10/28 01:28:24;;;;;;;10.33;6.50;;;12.60;99.90;;;;;;5071525;28;20649;-87
2022/10/28 01:31:13;;;;;;;17.20;6.60;;;12.40;99.90;;;;;;5055992;28;20622;-88
2022/10/28 01:33:47;;;;;;;9.53;6.37;;;12.50;99.90;;;;;;5043976;28;20632;-87
2022/10/28 01:36:17;;;;;;;10.20;6.47;;;12.40;99.90;;;;;;5061512;28;20612;-88
2022/10/28 01:38:51;;;;;;;14.70;7.43;;;12.20;99.90;;;;;;5061815;28;20695;-87
2022/10/28 01:41:26;;;;;;;13.40;7.20;;;12.00;99.90;;;;;;5060482;28;20653;-88
2022/10/28 01:43:58;;;;;;;8.70;7.03;;;11.90;99.90;;;;;;5063516;28;20597;-87
2022/10/28 01:46:34;;;;;;;8.33;6.63;;;11.80;99.90;;;;;;5065554;28;20699;-88
2022/10/28 01:49:07;;;;;;;9.90;6.43;;;12.20;99.90;;;;;;5062516;28;20669;-87
2022/10/28 01:51:37;;;;;;;10.23;7.00;;;12.20;99.90;;;;;;5065481;28;20626;-87
2022/10/28 01:54:08;;;;;;;14.30;6.43;;;11.80;99.90;;;;;;5066667;28;20617;-87
2022/10/28 01:56:39;;;;;;;20.20;8.23;;;11.70;99.90;;;;;;5064131;28;20677;-87
2022/10/28 01:59:08;;;;;;;11.53;6.87;;;12.10;99.90;;;;;;5042524;28;20668;-88
2022/10/28 02:01:37;;;;;;;11.60;7.13;;;11.80;99.90;;;;;;5049256;28;20622;-88
2022/10/28 02:04:04;;;;;;;13.07;7.00;;;11.60;99.90;;;;;;5044934;28;20981;-88
2022/10/28 02:06:33;;;;;;;7.30;6.57;;;12.00;99.90;;;;;;5048037;28;21204;-88
2022/10/28 02:09:14;;;;;;;10.63;6.60;;;12.00;99.90;;;;;;5049038;28;20669;-88
2022/10/28 02:12:03;;;;;;;10.40;6.50;;;12.00;99.90;;;;;;5052381;28;20622;-88
2022/10/28 02:14:40;;;;;;;9.90;6.70;;;12.00;99.90;;;;;;5044370;28;21047;-88
2022/10/28 02:17:21;;;;;;;14.03;7.53;;;11.90;99.90;;;;;;5039403;28;20630;-88
2022/10/28 02:19:53;;;;;;;14.10;7.30;;;11.60;99.90;;;;;;5045591;28;20872;-88
2022/10/28 02:22:26;;;;;;;9.57;6.70;;;11.60;99.90;;;;;;5044162;28;20630;-88
2022/10/28 02:25:00;;;;;;;12.70;6.40;;;12.00;99.90;;;;;;5047011;28;20626;-87
2022/10/28 02:27:36;;;;;;;13.47;6.80;;;11.80;99.90;;;;;;5042692;28;20637;-88
2022/10/28 02:30:07;;;;;;;12.77;5.97;;;11.50;99.90;;;;;;5044732;28;20691;-88
2022/10/28 02:32:40;;;;;;;9.63;6.53;;;11.90;99.90;;;;;;5048076;28;20614;-88
2022/10/28 02:35:13;;;;;;;9.33;7.00;;;11.50;99.90;;;;;;5046624;28;20987;-87
2022/10/28 02:37:41;;;;;;;12.73;7.10;;;11.80;99.90;;;;;;5044152;28;21201;-87
2022/10/28 02:40:12;;;;;;;7.60;6.00;;;11.90;99.90;;;;;;5046284;28;20696;-87
2022/10/28 02:42:44;;;;;;;10.33;6.67;;;11.90;99.90;;;;;;5059838;28;20633;-88
2022/10/28 02:45:14;;;;;;;8.90;5.93;;;11.80;99.90;;;;;;5077149;28;20592;-88
2022/10/28 02:47:46;;;;;;;13.87;7.03;;;11.40;99.90;;;;;;5060268;28;20613;-87
2022/10/28 02:50:17;;;;;;;7.87;6.00;;;11.50;99.90;;;;;;5041741;28;20642;-88
2022/10/28 02:52:49;;;;;;;9.97;6.70;;;11.40;99.90;;;;;;5038222;28;20675;-88
2022/10/28 02:55:16;;;;;;;10.57;7.00;;;11.50;99.90;;;;;;5043564;28;20613;-87
2022/10/28 02:57:47;;;;;;;9.90;6.70;;;11.80;99.90;;;;;;5043627;28;21413;-87
2022/10/28 03:00:17;;;;;;;12.33;8.07;;;11.40;99.90;;;;;;5048970;28;20668;-90
2022/10/28 03:02:45;;;;;;;11.90;7.93;;;11.90;99.90;;;;;;5048457;28;20626;-88
2022/10/28 03:05:13;;;;;;;13.30;8.90;;;11.90;99.90;;;;;;5050545;28;20622;-88
2022/10/28 03:07:42;;;;;;;10.67;8.67;;;11.50;99.90;;;;;;5046098;28;20619;-88
2022/10/28 03:10:09;;;;;;;14.10;9.60;;;11.40;99.90;;;;;;5047515;28;20677;-86
2022/10/28 03:12:36;;;;;;;13.00;7.83;;;11.90;99.90;;;;;;5047031;28;20626;-88
2022/10/28 03:15:04;;;;;;;12.13;8.50;;;11.90;99.90;;;;;;5042962;28;20633;-88
2022/10/28 03:17:30;;;;;;;9.90;6.70;;;11.70;99.90;;;;;;5050491;28;20638;-88
2022/10/28 03:19:59;;;;;;;8.93;6.70;;;11.40;99.90;;;;;;5045085;28;20648;-88
2022/10/28 03:22:26;;;;;;;8.73;6.97;;;11.60;99.90;;;;;;5042027;28;20628;-87
2022/10/28 03:24:52;;;;;;;8.30;6.43;;;11.90;99.90;;;;;;5043595;28;21014;-88
2022/10/28 03:27:19;;;;;;;17.10;7.37;;;11.50;99.90;;;;;;5044285;28;20641;-88
2022/10/28 03:29:46;;;;;;;14.87;8.57;;;11.70;99.90;;;;;;5047199;28;20662;-88
2022/10/28 03:32:13;;;;;;;8.07;6.83;;;11.30;99.90;;;;;;5042925;28;20630;-87
2022/10/28 03:34:40;;;;;;;8.50;7.10;;;11.80;99.90;;;;;;5041078;28;21025;-88
2022/10/28 03:37:08;;;;;;;14.43;7.03;;;11.70;99.90;;;;;;5038532;28;20733;-87
2022/10/28 03:39:35;;;;;;;9.70;6.83;;;11.70;99.90;;;;;;5043000;28;20650;-87
2022/10/28 03:42:02;;;;;;;13.83;6.43;;;11.40;99.90;;;;;;5052071;28;21153;-88
2022/10/28 03:44:29;;;;;;;10.60;7.67;;;11.40;99.90;;;;;;5041733;28;20619;-88
2022/10/28 03:46:56;;;;;;;13.03;6.70;;;11.40;99.90;;;;;;5046302;28;20630;-88
2022/10/28 03:49:22;;;;;;;11.43;6.70;;;11.40;99.90;;;;;;5044802;28;20680;-88
2022/10/28 03:51:49;;;;;;;9.13;7.20;;;12.10;99.90;;;;;;5044923;28;20633;-87
2022/10/28 03:54:17;;;;;;;15.07;7.03;;;12.10;99.90;;;;;;5048678;28;21205;-88
2022/10/28 03:56:44;;;;;;;8.23;6.33;;;11.60;99.90;;;;;;5045506;28;20626;-88
2022/10/28 03:59:11;;;;;;;11.47;7.17;;;12.30;99.90;;;;;;5041912;28;20654;-87
2022/10/28 04:01:38;;;;;;;10.20;6.63;;;11.90;99.90;;;;;;5047239;28;20622;-88
2022/10/28 04:04:05;;;;;;;10.73;7.10;;;12.20;99.90;;;;;;5041969;28;20629;-88
2022/10/28 04:06:32;;;;;;;10.80;7.07;;;12.10;99.90;;;;;;5051793;28;20598;-88
2022/10/28 04:08:59;;;;;;;8.40;7.50;;;11.80;99.90;;;;;;5065993;28;20705;-88
2022/10/28 04:11:27;;;;;;;15.13;7.63;;;11.60;99.90;;;;;;5052229;28;20636;-88
2022/10/28 04:13:54;;;;;;;9.97;6.20;;;11.90;99.90;;;;;;5039108;28;20626;-87
2022/10/28 04:16:20;;;;;;;10.47;6.30;;;11.80;99.90;;;;;;5042823;28;20630;-87
2022/10/28 04:18:47;;;;;;;9.00;6.60;;;11.80;99.90;;;;;;5042183;28;20655;-88
2022/10/28 04:21:14;;;;;;;9.17;6.77;;;12.10;99.90;;;;;;5042776;28;20626;-87
2022/10/28 04:23:41;;;;;;;10.53;6.33;;;11.70;99.90;;;;;;5040011;28;20626;-88
2022/10/28 04:26:07;;;;;;;9.23;6.37;;;11.60;99.90;;;;;;5044545;28;20625;-88
2022/10/28 04:28:36;;;;;;;9.60;6.30;;;12.10;99.90;;;;;;5036370;28;20619;-88
2022/10/28 04:31:03;;;;;;;10.73;7.77;;;11.90;99.90;;;;;;5043250;28;20989;-88
2022/10/28 04:33:29;;;;;;;11.43;6.77;;;12.10;99.90;;;;;;5042576;28;21486;-88
2022/10/28 04:35:56;;;;;;;11.33;6.70;;;11.70;99.90;;;;;;5039669;28;20644;-88
2022/10/28 04:38:23;;;;;;;12.70;7.33;;;11.90;99.90;;;;;;5049463;28;20636;-88
2022/10/28 04:40:50;;;;;;;10.20;6.23;;;12.40;99.90;;;;;;5041807;28;21201;-88
2022/10/28 04:43:17;;;;;;;9.37;6.80;;;12.20;99.90;;;;;;5045480;28;20626;-89
2022/10/28 04:45:45;;;;;;;8.07;6.10;;;12.20;99.90;;;;;;5041416;28;20637;-88
2022/10/28 04:48:12;;;;;;;9.30;7.20;;;12.20;99.90;;;;;;5041230;28;20988;-89
2022/10/28 04:50:38;;;;;;;8.60;6.87;;;11.80;99.90;;;;;;5039928;28;20681;-89
2022/10/28 04:53:05;;;;;;;10.87;6.93;;;12.00;99.90;;;;;;5048313;28;20626;-89
2022/10/28 04:55:32;;;;;;;9.50;7.33;;;12.00;99.90;;;;;;5048606;28;20645;-89
2022/10/28 04:58:00;;;;;;;10.47;8.00;;;12.00;99.90;;;;;;5046371;28;20618;-89
2022/10/28 05:00:29;;;;;;;9.70;7.83;;;11.90;99.90;;;;;;5038382;28;20654;-89
2022/10/28 05:03:00;;;;;;;8.73;6.93;;;12.20;99.90;;;;;;5043077;28;20631;-89
2022/10/28 05:05:27;;;;;;;8.97;7.13;;;12.40;99.90;;;;;;5050558;28;20617;-90
2022/10/28 05:07:54;;;;;;;8.80;7.00;;;12.40;99.90;;;;;;5036425;28;20645;-86
2022/10/28 05:10:20;;;;;;;14.50;7.57;;;12.30;99.90;;;;;;5039330;28;20662;-88
2022/10/28 05:12:47;;;;;;;10.33;6.57;;;12.20;99.90;;;;;;5042294;28;20639;-87
2022/10/28 05:15:15;;;;;;;12.87;6.50;;;12.00;99.90;;;;;;5040011;28;20625;-87
2022/10/28 05:17:44;;;;;;;12.80;7.73;;;12.20;99.90;;;;;;5045375;28;20626;-87
2022/10/28 05:20:14;;;;;;;13.87;7.60;;;12.50;99.90;;;;;;5047217;28;20656;-88
2022/10/28 05:22:45;;;;;;;16.40;8.57;;;12.30;99.90;;;;;;5044697;28;20670;-88
2022/10/28 05:25:12;;;;;;;14.50;6.83;;;12.40;99.90;;;;;;5044932;28;20613;-88
2022/10/28 05:27:39;;;;;;;12.03;7.20;;;12.50;99.90;;;;;;5063130;28;20634;-88
2022/10/28 05:30:07;;;;;;;10.90;6.67;;;12.00;99.90;;;;;;5070808;28;20680;-88
2022/10/28 05:32:34;;;;;;;12.97;6.90;;;12.60;99.90;;;;;;5054703;28;20614;-87
2022/10/28 05:35:01;;;;;;;14.20;7.13;;;11.90;99.90;;;;;;5037779;28;20633;-88
2022/10/28 05:37:29;;;;;;;14.97;6.93;;;12.10;99.90;;;;;;5043026;28;20642;-88
2022/10/28 05:39:56;;;;;;;11.00;8.50;;;12.00;99.90;;;;;;5050478;28;20650;-88
2022/10/28 05:42:45;;;;;;;12.17;7.50;;;12.40;99.90;;;;;;5061783;28;20601;-88
2022/10/28 05:45:13;;;;;;;11.23;7.20;;;12.10;99.90;;;;;;5051458;28;20660;-88
2022/10/28 05:47:43;;;;;;;11.60;6.57;;;12.40;99.90;;;;;;5044408;28;20614;-88
2022/10/28 05:50:10;;;;;;;10.63;7.30;;;12.30;99.90;;;;;;5046355;28;22212;-88
2022/10/28 05:52:38;;;;;;;12.37;6.67;;;12.20;99.90;;;;;;5058682;28;20609;-87
2022/10/28 05:55:05;;;;;;;20.23;8.30;;;12.00;99.90;;;;;;5044177;28;20621;-88
2022/10/28 05:57:34;;;;;;;11.80;7.07;;;12.40;99.90;;;;;;5043427;28;20628;-88
2022/10/28 06:00:01;;;;;;;8.57;7.00;;;12.40;99.90;;;;;;5044332;28;20654;-88
2022/10/28 06:02:28;;;;;;;12.23;6.67;;;12.20;99.90;;;;;;5042030;28;20638;-88
2022/10/28 06:04:55;;;;;;;8.87;6.97;;;11.90;99.90;;;;;;5045465;28;20622;-88
2022/10/28 06:07:23;;;;;;;12.10;7.20;;;11.70;99.90;;;;;;5049130;28;20633;-88
2022/10/28 06:09:51;;;;;;;12.13;7.20;;;11.90;99.90;;;;;;5043479;28;21687;-88
2022/10/28 06:12:18;;;;;;;15.20;7.73;;;12.40;99.90;;;;;;5042350;28;20607;-88
2022/10/28 06:14:45;;;;;;;9.40;7.90;;;11.80;99.90;;;;;;5045646;28;20625;-88
2022/10/28 06:17:12;;;;;;;10.17;7.70;;;12.20;99.90;;;;;;5052565;28;20643;-88
2022/10/28 06:19:38;;;;;;;15.17;7.47;;;11.80;99.90;;;;;;5047930;28;20645;-88
2022/10/28 06:22:05;;;;;;;12.63;6.83;;;11.90;99.90;;;;;;5046221;28;20629;-88
2022/10/28 06:24:32;;;;;;;15.67;7.87;;;11.80;99.90;;;;;;5046897;28;20626;-88
2022/10/28 06:27:00;;;;;;;9.70;6.67;;;11.90;99.90;;;;;;5046462;28;20633;-88
2022/10/28 06:29:27;;;;;;;9.80;7.10;;;12.20;99.90;;;;;;5048734;28;20709;-88
2022/10/28 06:31:54;;;;;;;10.53;6.60;;;11.70;99.90;;;;;;5044205;28;21430;-87
2022/10/28 06:34:20;;;;;;;13.97;7.40;;;12.10;99.90;;;;;;5042608;28;20637;-87
2022/10/28 06:36:47;;;;;;;8.60;6.73;;;12.20;99.90;;;;;;5044180;28;20640;-88
2022/10/28 06:39:14;;;;;;;11.30;6.50;;;12.20;99.90;;;;;;5045738;28;20654;-86
2022/10/28 06:41:41;;;;;;;9.90;7.10;;;12.20;99.90;;;;;;5041469;28;20987;-87
2022/10/28 06:44:09;;;;;;;10.07;6.60;;;12.30;99.90;;;;;;5045825;28;20641;-88
2022/10/28 06:46:36;;;;;;;9.93;7.13;;;11.80;99.90;;;;;;5045679;28;20634;-87
2022/10/28 06:49:03;;;;;;;8.17;7.00;;;11.90;99.90;;;;;;5044774;28;20704;-88
2022/10/28 06:51:31;;;;;;;13.50;7.00;;;12.10;99.90;;;;;;5037783;28;20631;-88
2022/10/28 06:53:59;;;;;;;8.90;6.43;;;12.10;99.90;;;;;;5044356;28;20625;-88
2022/10/28 06:56:26;;;;;;;9.23;6.90;;;12.20;99.90;;;;;;5041510;28;20654;-88
2022/10/28 06:58:54;;;;;;;8.77;6.50;;;12.20;99.90;;;;;;5045413;28;20650;-88
2022/10/28 07:01:22;;;;;;;15.53;6.70;;;12.10;99.90;;;;;;5053475;28;20616;-88
2022/10/28 07:03:49;;;;;;;14.10;8.70;;;12.20;99.90;;;;;;5060170;28;21227;-88
2022/10/28 07:06:17;;;;;;;18.50;7.97;;;12.20;99.90;;;;;;5050276;28;20871;-88
2022/10/28 07:08:44;;;;;;;7.67;6.37;;;12.70;99.90;;;;;;5052885;28;21240;-89
2022/10/28 07:11:10;;;;;;;13.97;6.00;;;12.70;99.90;;;;;;5046438;28;21008;-88
2022/10/28 07:13:37;;;;;;;14.93;7.60;;;12.80;99.90;;;;;;5039349;28;20617;-87
2022/10/28 07:16:05;;;;;;;14.93;6.37;;;12.90;99.90;;;;;;5038349;28;20625;-87
2022/10/28 07:18:33;;;;;;;11.23;6.67;;;13.00;99.90;;;;;;5044427;28;20656;-87
2022/10/28 07:21:00;;;;;;;14.77;7.53;;;12.70;99.90;;;;;;5044587;28;20932;-89
2022/10/28 07:23:27;;;;;;;11.13;6.73;;;13.00;99.90;;;;;;5040759;28;20631;-89
2022/10/28 07:25:55;;;;;;;7.43;6.60;;;13.00;99.90;;;;;;5041403;28;20765;-88
2022/10/28 07:28:24;;;;;;;9.80;6.83;;;12.50;99.90;;;;;;5038476;28;20623;-88
2022/10/28 07:30:51;;;;;;;9.80;6.60;;;12.50;99.90;;;;;;5043949;28;20787;-89
2022/10/28 07:33:18;;;;;;;14.53;6.60;;;13.10;99.90;;;;;;5042308;28;20625;-89
2022/10/28 07:35:46;;;;;;;12.33;7.87;;;13.10;99.90;;;;;;5041951;28;20633;-89
2022/10/28 07:38:13;;;;;;;13.50;7.40;;;13.30;99.90;;;;;;5040219;28;21280;-88
2022/10/28 07:40:40;;;;;;;16.43;7.30;;;13.30;99.90;;;;;;5044895;28;20646;-88
2022/10/28 07:43:07;;;;;;;12.33;7.40;;;13.40;99.90;;;;;;5054609;28;20630;-88
2022/10/28 07:45:34;;;;;;;12.07;6.90;;;13.50;99.90;;;;;;5052173;28;21007;-89
2022/10/28 07:48:02;;;;;;;9.30;7.57;;;13.20;99.90;;;;;;5042354;28;20621;-86
2022/10/28 07:50:29;;;;;;;8.07;7.23;;;13.60;99.90;;;;;;5025774;28;20754;-88
2022/10/28 07:52:57;;;;;;;16.87;8.00;;;13.80;99.90;;;;;;5042829;28;21229;-87
2022/10/28 07:55:24;;;;;;;15.67;7.30;;;13.80;99.90;;;;;;5036676;28;20635;-89
2022/10/28 07:57:51;;;;;;;16.63;6.90;;;13.90;99.90;;;;;;5038628;28;20633;-89
2022/10/28 08:00:18;;;;;;;18.67;6.73;;;13.90;99.90;;;;;;5045766;28;20648;-88
2022/10/28 08:02:45;;;;;;;19.70;6.20;;;13.90;99.90;;;;;;5035997;28;20621;-89
2022/10/28 08:05:12;;;;;;;10.70;7.03;;;13.90;99.90;;;;;;5044111;28;20629;-89
2022/10/28 08:07:38;;;;;;;20.87;7.43;;;14.00;99.90;;;;;;5038847;28;20642;-89
2022/10/28 08:10:07;;;;;;;17.20;7.20;;;14.10;99.90;;;;;;5045976;28;20682;-88
2022/10/28 08:12:34;;;;;;;12.63;6.17;;;14.10;99.90;;;;;;5043490;28;20626;-88
2022/10/28 08:15:01;;;;;;;18.83;7.87;;;14.20;99.90;;;;;;5040711;28;20631;-89
2022/10/28 08:17:28;;;;;;;18.00;6.70;;;14.40;99.90;;;;;;5038240;28;20669;-89
2022/10/28 08:19:55;;;;;;;9.37;6.20;;;14.50;99.90;;;;;;5040537;28;20649;-89
2022/10/28 08:22:21;;;;;;;10.13;7.33;;;14.70;99.90;;;;;;5044717;28;20636;-89
2022/10/28 08:24:48;;;;;;;11.60;6.60;;;14.70;99.90;;;;;;5045051;28;20657;-89
2022/10/28 08:27:16;;;;;;;12.10;5.90;;;14.80;99.90;;;;;;5043933;28;20630;-88
2022/10/28 08:29:43;;;;;;;9.93;6.17;;;14.80;99.90;;;;;;5051726;28;20646;-90
2022/10/28 08:32:10;;;;;;;14.97;7.50;;;14.80;99.90;;;;;;5056129;28;20642;-89
2022/10/28 08:34:37;;;;;;;12.00;6.50;;;14.70;99.90;;;;;;5046164;28;20634;-89
2022/10/28 08:37:03;;;;;;;12.63;6.77;;;14.90;99.90;;;;;;5042730;28;20635;-88
2022/10/28 08:39:30;;;;;;;17.00;6.47;;;15.00;99.90;;;;;;5041013;28;20657;-88
2022/10/28 08:42:15;;;;;;;16.73;6.00;;;15.10;99.90;;;;;;5041580;28;20622;-89
2022/10/28 08:45:08;;;;;;;11.10;5.67;;;15.10;99.90;;;;;;5039520;28;20630;-86
2022/10/28 08:47:45;;;;;;;11.00;6.40;;;15.20;99.90;;;;;;5034741;28;20651;-89
2022/10/28 08:50:15;;;;;;;13.87;6.63;;;15.40;99.90;;;;;;5051724;28;20788;-89
2022/10/28 08:52:48;;;;;;;11.37;5.60;;;15.40;99.90;;;;;;5058119;28;21030;-89
2022/10/28 08:55:20;;;;;;;12.43;6.93;;;15.60;99.90;;;;;;5039283;28;20630;-89
2022/10/28 08:57:51;;;;;;;18.67;5.90;;;15.80;99.90;;;;;;5043789;28;21196;-89
2022/10/28 09:00:23;;;;;;;11.83;5.63;;;16.00;99.90;;;;;;5050025;28;20650;-89
2022/10/28 09:03:03;;;;;;;16.93;5.50;;;16.10;99.90;;;;;;5043113;28;20633;-89
2022/10/28 09:05:30;;;;;;;12.97;6.07;;;16.30;99.90;;;;;;5038089;28;21248;-87
2022/10/28 09:07:58;;;;;;;10.27;5.53;;;16.40;99.90;;;;;;5035815;28;20626;-87
2022/10/28 09:10:50;;;;;;;11.37;4.80;;;16.50;99.90;;;;;;5040585;28;20688;-88
2022/10/28 09:13:24;;;;;;;11.60;4.83;;;16.70;99.90;;;;;;5036663;28;20630;-88
2022/10/28 09:16:01;;;;;;;8.23;5.13;;;16.80;99.90;;;;;;5018445;28;20622;-89
2022/10/28 09:18:45;;;;;;;10.90;5.53;;;16.90;99.90;;;;;;5044231;28;20735;-90
2022/10/28 09:21:19;;;;;;;9.30;4.00;;;17.00;99.90;;;;;;5041209;28;20621;-88
2022/10/28 09:23:54;;;;;;;10.67;4.13;;;16.90;99.90;;;;;;5037618;28;20630;-88
2022/10/28 09:26:27;;;;;;;10.70;5.10;;;16.90;99.90;;;;;;5037546;28;20636;-88
2022/10/28 09:29:05;;;;;;;8.10;5.10;;;17.00;99.90;;;;;;5040701;28;20699;-89
2022/10/28 09:31:37;;;;;;;9.90;5.70;;;17.10;99.90;;;;;;5042863;28;21015;-88
2022/10/28 09:34:16;;;;;;;9.03;4.77;;;17.20;99.90;;;;;;5042011;28;20633;-89
2022/10/28 09:36:47;;;;;;;6.37;4.90;;;17.40;99.90;;;;;;5046692;28;20644;-89
2022/10/28 09:39:17;;;;;;;8.90;5.37;;;17.50;99.90;;;;;;5044136;28;20655;-89
2022/10/28 09:41:52;;;;;;;21.47;6.97;;;17.50;99.90;;;;;;5042524;28;20674;-89
2022/10/28 09:44:25;;;;;;;18.07;7.17;;;17.30;99.90;;;;;;5035107;28;20613;-89
2022/10/28 09:46:57;;;;;;;9.73;4.73;;;17.50;99.90;;;;;;5051687;28;20720;-88
2022/10/28 09:49:28;;;;;;;13.23;4.60;;;17.50;99.90;;;;;;5038971;28;20656;-90
2022/10/28 09:52:03;;;;;;;22.83;7.33;;;17.80;99.90;;;;;;5043502;28;20661;-88
2022/10/28 09:54:34;;;;;;;9.93;5.17;;;17.50;99.90;;;;;;5033280;28;21197;-88
2022/10/28 09:57:03;;;;;;;13.03;5.33;;;17.20;99.90;;;;;;5044162;28;20657;-88
2022/10/28 09:59:31;;;;;;;9.03;5.70;;;17.50;99.90;;;;;;5032355;28;20705;-89
2022/10/28 10:02:00;;;;;;;10.90;5.27;;;18.00;99.90;;;;;;5057722;28;20625;-89
2022/10/28 10:04:30;;;;;;;6.87;4.63;;;18.30;99.90;;;;;;5050874;28;20629;-89
2022/10/28 10:06:59;;;;;;;7.50;5.87;;;18.60;99.90;;;;;;5047500;28;20653;-89
2022/10/28 10:09:29;;;;;;;15.03;6.30;;;18.20;99.90;;;;;;5027289;28;20650;-89
2022/10/28 10:12:02;;;;;;;7.90;5.43;;;17.80;99.90;;;;;;5045438;28;20661;-88
2022/10/28 10:14:31;;;;;;;6.43;5.20;;;18.50;99.90;;;;;;5047170;28;20809;-89
2022/10/28 10:17:05;;;;;;;11.30;5.77;;;19.70;99.90;;;;;;5048366;28;20636;-90
2022/10/28 10:20:04;;;;;;;6.03;5.00;;;19.40;99.90;;;;;;5047036;28;21181;-89
2022/10/28 10:22:34;;;;;;;9.90;5.00;;;19.50;99.90;;;;;;5047863;28;20721;-90
2022/10/28 10:25:02;;;;;;;10.77;5.40;;;19.00;99.90;;;;;;5050990;28;20625;-90
2022/10/28 10:27:30;;;;;;;6.40;5.03;;;19.20;99.90;;;;;;5042795;28;20701;-90
2022/10/28 10:29:58;;;;;;;8.80;4.87;;;19.30;99.90;;;;;;5046188;28;20649;-90
2022/10/28 10:32:29;;;;;;;11.60;5.73;;;19.30;99.90;;;;;;5044011;28;20676;-88
2022/10/28 10:35:05;;;;;;;13.00;5.30;;;19.50;99.90;;;;;;5054011;28;20618;-90
2022/10/28 10:37:34;;;;;;;9.63;5.63;;;19.60;99.90;;;;;;5051814;28;20736;-90
2022/10/28 10:40:17;;;;;;;11.03;5.07;;;19.90;99.90;;;;;;5039846;28;20655;-88
2022/10/28 10:42:44;;;;;;;16.63;7.43;;;20.10;99.90;;;;;;5040350;28;20684;-89
2022/10/28 10:45:20;;;;;;;11.53;6.10;;;20.90;99.90;;;;;;5040896;28;21180;-90
2022/10/28 10:47:49;;;;;;;10.43;5.07;;;19.70;99.90;;;;;;5046629;28;20606;-89
2022/10/28 10:50:30;;;;;;;8.03;5.40;;;19.90;99.90;;;;;;5042919;28;21234;-90
2022/10/28 10:52:59;;;;;;;7.20;5.40;;;21.10;99.90;;;;;;5046394;28;20636;-90
2022/10/28 10:55:33;;;;;;;11.23;6.70;;;22.00;99.90;;;;;;5040703;28;20631;-89
2022/10/28 10:58:02;;;;;;;12.70;6.10;;;22.10;99.90;;;;;;5041105;28;20629;-90
2022/10/28 11:00:35;;;;;;;10.30;6.70;;;21.10;99.90;;;;;;5042838;28;20767;-89
2022/10/28 11:03:05;;;;;;;8.87;6.23;;;19.80;99.90;;;;;;5047818;28;20628;-90
2022/10/28 11:05:32;;;;;;;12.60;7.57;;;19.20;99.90;;;;;;5045159;28;20587;-90
2022/10/28 11:08:03;;;;;;;11.93;6.80;;;19.30;99.90;;;;;;5040259;28;20649;-89
2022/10/28 11:10:33;;;;;;;10.33;5.80;;;19.30;99.90;;;;;;5049398;28;20646;-89
2022/10/28 11:13:04;;;;;;;18.40;5.37;;;19.60;99.90;;;;;;5047071;28;21171;-90
2022/10/28 11:15:32;;;;;;;13.20;5.53;;;19.60;99.90;;;;;;5037815;28;20635;-91
2022/10/28 11:18:01;;;;;;;10.63;4.70;;;19.70;99.90;;;;;;5044864;28;21002;-89
2022/10/28 11:20:42;;;;;;;26.30;5.53;;;19.50;99.90;;;;;;5046340;28;20670;-90
2022/10/28 11:23:26;;;;;;;13.07;5.47;;;19.80;99.90;;;;;;5041091;28;20637;-91
2022/10/28 11:25:55;;;;;;;19.20;5.50;;;20.00;99.90;;;;;;5050216;28;20664;-92
2022/10/28 11:28:43;;;;;;;8.33;5.23;;;20.50;99.90;;;;;;5045481;28;20737;-89
2022/10/28 11:31:34;;;;;;;7.87;4.50;;;20.70;99.90;;;;;;5040878;28;20681;-89
2022/10/28 11:34:17;;;;;;;11.80;4.73;;;20.30;99.90;;;;;;5040742;28;20606;-89
2022/10/28 11:36:55;;;;;;;11.17;5.57;;;20.40;99.90;;;;;;5041612;28;20630;-89
2022/10/28 11:39:31;;;;;;;9.77;5.10;;;20.50;99.90;;;;;;5040814;28;20654;-90
2022/10/28 11:42:10;;;;;;;10.17;4.80;;;20.40;99.90;;;;;;5041964;28;20613;-91
2022/10/28 11:44:47;;;;;;;8.40;5.00;;;20.70;99.90;;;;;;5040493;28;20641;-90
2022/10/28 11:47:45;;;;;;;18.27;5.20;;;20.40;99.90;;;;;;5038673;28;20615;-90
2022/10/28 11:50:30;;;;;;;9.17;4.70;;;20.20;99.90;;;;;;5039844;28;20689;-90
2022/10/28 11:53:25;;;;;;;10.20;5.30;;;20.10;99.90;;;;;;5039754;28;20660;-90
2022/10/28 11:56:00;;;;;;;7.60;5.50;;;20.10;99.90;;;;;;5041270;28;20645;-90
2022/10/28 11:58:36;;;;;;;8.33;4.80;;;20.30;99.90;;;;;;5041343;28;20637;-89
2022/10/28 12:01:15;;;;;;;7.10;5.60;;;20.00;99.90;;;;;;5044456;28;20729;-90
2022/10/28 12:04:09;;;;;;;13.73;6.70;;;20.10;99.90;;;;;;5038872;28;20635;-89
2022/10/28 12:07:18;;;;;;;11.13;5.90;;;20.40;99.90;;;;;;5037335;28;20733;-90
2022/10/28 12:09:58;;;;;;;13.00;6.20;;;20.50;99.90;;;;;;5039373;28;21019;-90
2022/10/28 12:12:36;;;;;;;16.67;5.97;;;19.80;99.90;;;;;;5038312;28;20630;-90
2022/10/28 12:15:17;;;;;;;11.87;4.87;;;19.70;99.90;;;;;;5042175;28;20626;-91
2022/10/28 12:17:50;;;;;;;12.23;11.07;;;19.90;99.90;;;;;;5040404;28;20626;-91
2022/10/28 12:20:24;;;;;;;15.20;6.77;;;20.10;99.90;;;;;;5040250;28;20653;-91
2022/10/28 12:22:53;;;;;;;9.73;5.87;;;20.20;99.90;;;;;;5040634;28;20717;-91
2022/10/28 12:25:25;;;;;;;10.17;5.90;;;20.60;99.90;;;;;;5036989;28;20638;-89
2022/10/28 12:27:55;;;;;;;12.70;5.90;;;20.90;99.90;;;;;;5043013;28;20637;-89
2022/10/28 12:30:26;;;;;;;12.30;5.63;;;21.50;99.90;;;;;;5038322;28;20658;-91
2022/10/28 12:32:57;;;;;;;15.23;6.20;;;22.00;99.90;;;;;;5041473;28;20658;-91
2022/10/28 12:35:28;;;;;;;7.97;5.33;;;22.80;99.90;;;;;;5036905;28;21186;-89
2022/10/28 12:38:02;;;;;;;9.13;5.57;;;24.00;99.90;;;;;;5040301;28;20654;-90
2022/10/28 12:40:38;;;;;;;9.83;4.80;;;24.50;99.90;;;;;;5042770;28;20667;-91
2022/10/28 12:43:12;;;;;;;10.13;5.17;;;24.80;99.90;;;;;;5038550;28;20614;-91
2022/10/28 12:45:40;;;;;;;12.37;5.87;;;24.90;99.90;;;;;;5046306;28;20622;-91
2022/10/28 12:48:16;;;;;;;10.57;4.40;;;24.40;99.90;;;;;;5039040;28;20622;-91
2022/10/28 12:50:50;;;;;;;6.23;4.20;;;24.90;99.90;;;;;;5040712;28;21201;-92
2022/10/28 12:53:24;;;;;;;9.07;4.50;;;26.60;95.10;;;;;;5041027;28;20774;-91
2022/10/28 12:55:57;;;;;;;7.27;4.20;;;28.50;89.00;;;;;;5034465;28;20622;-92
2022/10/28 12:58:30;;;;;;;12.87;5.27;;;29.80;76.70;;;;;;5034901;28;21072;-92
2022/10/28 13:01:00;;;;;;;7.07;4.87;;;29.90;74.60;;;;;;5036294;28;20637;-91